createdAt,value
2022-08-05T00:00:53.887Z,24.90
2022-08-05T00:06:05.728Z,24.91
2022-08-05T00:11:23.820Z,24.73
2022-08-05T00:16:52.466Z,24.65
2022-08-05T00:21:55.554Z,24.63
2022-08-05T00:26:57.365Z,24.63
2022-08-05T00:32:13.012Z,24.60
2022-08-05T00:37:16.960Z,24.49
2022-08-05T00:42:39.966Z,24.46
2022-08-05T00:47:56.409Z,24.33
2022-08-05T00:52:59.336Z,24.23
2022-08-05T00:58:01.684Z,24.18
2022-08-05T01:03:07.978Z,24.16
2022-08-05T01:08:41.364Z,24.19
2022-08-05T01:14:00.109Z,23.95
2022-08-05T01:19:16.089Z,23.69
2022-08-05T01:24:49.962Z,23.66
2022-08-05T01:29:56.516Z,23.65
2022-08-05T01:35:10.370Z,23.74
2022-08-05T01:40:17.981Z,23.69
2022-08-05T01:45:20.954Z,23.68
2022-08-05T01:50:53.042Z,23.65
2022-08-05T01:55:59.844Z,23.31
2022-08-05T02:01:07.041Z,23.14
2022-08-05T02:06:24.228Z,22.79
2022-08-05T02:11:52.299Z,22.72
2022-08-05T02:17:00.102Z,22.71
2022-08-05T02:22:25.497Z,22.67
2022-08-05T02:27:59.483Z,22.66
2022-08-05T02:32:55.505Z,22.41
2022-08-05T02:38:00.336Z,22.24
2022-08-05T02:43:07.312Z,22.35
2022-08-05T02:48:12.898Z,22.44
2022-08-05T02:53:19.136Z,22.36
2022-08-05T02:58:22.267Z,22.19
2022-08-05T03:03:26.308Z,22.32
2022-08-05T03:08:29.824Z,22.13
2022-08-05T03:13:52.047Z,21.82
2022-08-05T03:18:53.618Z,21.73
2022-08-05T03:23:57.770Z,21.84
2022-08-05T03:29:00.290Z,21.81
2022-08-05T03:34:04.396Z,21.76
2022-08-05T03:39:07.880Z,21.75
2022-08-05T03:44:11.653Z,21.75
2022-08-05T03:49:14.971Z,21.51
2022-08-05T03:55:51.580Z,21.53
2022-08-05T03:59:56.183Z,21.65
2022-08-05T04:04:59.818Z,21.61
2022-08-05T04:10:03.224Z,21.42
2022-08-05T04:15:05.841Z,21.35
2022-08-05T04:20:21.110Z,20.99
2022-08-05T04:25:56.673Z,21.25
2022-08-05T04:30:48.323Z,21.28
2022-08-05T04:36:15.789Z,21.28
2022-08-05T04:41:12.249Z,21.40
2022-08-05T04:46:13.977Z,21.31
2022-08-05T04:51:30.377Z,21.41
2022-08-05T04:56:36.792Z,21.26
2022-08-05T05:02:07.692Z,21.39
2022-08-05T05:07:00.337Z,21.78
2022-08-05T05:12:04.518Z,21.95
2022-08-05T05:17:09.311Z,22.54
2022-08-05T05:22:24.152Z,23.03
2022-08-05T05:27:44.567Z,23.48
2022-08-05T05:32:47.932Z,23.84
2022-08-05T05:38:00.348Z,24.10
2022-08-05T05:43:03.637Z,24.16
2022-08-05T05:48:08.870Z,24.15
2022-08-05T05:53:22.212Z,24.24
2022-08-05T05:58:30.320Z,24.43
2022-08-05T06:03:54.128Z,24.63
2022-08-05T06:08:55.765Z,24.69
2022-08-05T06:13:57.867Z,24.78
2022-08-05T06:19:05.886Z,24.83
2022-08-05T06:24:11.458Z,24.89
2022-08-05T06:29:25.329Z,24.92
2022-08-05T06:34:35.721Z,24.92
2022-08-05T06:39:39.316Z,24.77
2022-08-05T06:44:43.476Z,24.58
2022-08-05T06:50:01.948Z,24.52
2022-08-05T06:55:07.838Z,24.59
2022-08-05T07:00:10.483Z,24.62
2022-08-05T07:05:18.940Z,24.77
2022-08-05T07:10:21.963Z,24.99
2022-08-05T07:16:01.782Z,25.12
2022-08-05T07:21:07.005Z,25.24
2022-08-05T07:26:11.130Z,25.35
2022-08-05T07:31:15.682Z,25.51
2022-08-05T07:36:20.772Z,25.51
2022-08-05T07:42:14.449Z,25.70
2022-08-05T07:46:48.275Z,25.96
2022-08-05T07:51:54.317Z,26.17
2022-08-05T07:57:14.012Z,26.20
2022-08-05T08:02:26.777Z,26.40
2022-08-05T08:07:59.133Z,26.49
2022-08-05T08:12:55.118Z,26.65
2022-08-05T08:18:01.990Z,26.87
2022-08-05T08:23:04.787Z,27.29
2022-08-05T08:28:06.566Z,27.55
2022-08-05T08:33:20.017Z,27.82
2022-08-05T08:38:32.312Z,28.08
2022-08-05T08:45:19.741Z,28.42
2022-08-05T08:50:05.697Z,28.60
2022-08-05T08:54:27.337Z,28.79
2022-08-05T08:59:33.553Z,28.90
2022-08-05T09:04:57.843Z,29.14
2022-08-05T09:09:59.595Z,29.22
2022-08-05T09:15:05.708Z,29.15
2022-08-05T09:20:09.229Z,29.40
2022-08-05T09:25:13.855Z,29.49
2022-08-05T09:30:25.987Z,29.53
2022-08-05T09:35:28.276Z,29.63
2022-08-05T09:40:36.210Z,29.85
2022-08-05T09:46:06.497Z,29.87
2022-08-05T09:51:14.830Z,29.88
2022-08-05T09:56:29.231Z,29.88
2022-08-05T10:01:36.852Z,29.95
2022-08-05T10:06:54.810Z,30.06
2022-08-05T10:12:29.986Z,30.20
2022-08-05T10:17:37.283Z,30.24
2022-08-05T10:22:43.030Z,30.43
2022-08-05T10:28:12.821Z,30.61
2022-08-05T10:33:18.307Z,30.33
2022-08-05T10:38:23.048Z,30.47
2022-08-05T10:43:48.836Z,30.70
2022-08-05T10:49:01.450Z,30.82
2022-08-05T10:54:23.083Z,30.91
2022-08-05T11:00:02.127Z,31.05
2022-08-05T11:04:55.180Z,31.32
2022-08-05T11:10:04.131Z,31.52
2022-08-05T11:16:01.008Z,31.52
2022-08-05T11:20:53.275Z,31.61
2022-08-05T11:26:09.935Z,31.47
2022-08-05T11:31:11.827Z,31.33
2022-08-05T11:36:44.331Z,31.49
2022-08-05T11:42:01.755Z,31.81
2022-08-05T11:47:14.242Z,32.04
2022-08-05T11:52:29.338Z,32.20
2022-08-05T11:58:08.660Z,32.23
2022-08-05T12:02:53.767Z,32.28
2022-08-05T12:08:10.271Z,32.29
2022-08-05T12:13:47.650Z,32.57
2022-08-05T12:18:52.739Z,32.64
2022-08-05T12:24:00.378Z,32.61
2022-08-05T12:29:09.243Z,32.37
2022-08-05T12:34:20.716Z,32.57
2022-08-05T12:39:34.355Z,32.96
2022-08-05T12:44:40.875Z,33.18
2022-08-05T12:50:04.070Z,33.25
2022-08-05T12:55:25.216Z,33.31
2022-08-05T13:02:05.684Z,33.42
2022-08-05T13:05:54.883Z,33.45
2022-08-05T13:11:02.092Z,33.43
2022-08-05T13:16:11.382Z,33.60
2022-08-05T13:21:13.082Z,33.84
2022-08-05T13:26:15.474Z,33.74
2022-08-05T13:31:17.971Z,33.89
2022-08-05T13:36:36.426Z,33.88
2022-08-05T13:41:38.329Z,33.74
2022-08-05T13:47:02.371Z,33.93
2022-08-05T13:52:13.511Z,34.07
2022-08-05T13:57:15.600Z,34.38
2022-08-05T14:02:19.938Z,34.39
2022-08-05T14:08:00.249Z,34.40
2022-08-05T14:12:48.640Z,34.64
2022-08-05T14:17:50.758Z,35.20
2022-08-05T14:23:00.515Z,35.24
2022-08-05T14:28:02.269Z,35.11
2022-08-05T14:33:04.719Z,34.89
2022-08-05T14:38:06.753Z,34.84
2022-08-05T14:44:02.361Z,34.75
2022-08-05T14:48:50.191Z,34.81
2022-08-05T14:54:27.601Z,34.79
2022-08-05T14:59:14.649Z,34.74
2022-08-05T15:04:20.293Z,34.63
2022-08-05T15:09:51.618Z,34.60
2022-08-05T15:14:49.580Z,34.84
2022-08-05T15:19:52.114Z,35.04
2022-08-05T15:24:58.986Z,35.21
2022-08-05T15:30:10.758Z,35.25
2022-08-05T15:35:16.106Z,34.83
2022-08-05T15:41:03.072Z,34.82
2022-08-05T15:45:45.720Z,34.90
2022-08-05T15:50:47.993Z,35.00
2022-08-05T15:56:01.945Z,35.17
2022-08-05T16:01:17.358Z,34.92
2022-08-05T16:06:20.928Z,35.03
2022-08-05T16:11:42.713Z,35.46
2022-08-05T16:16:47.121Z,35.20
2022-08-05T16:21:58.844Z,35.00
2022-08-05T16:27:04.030Z,34.43
2022-08-05T16:32:09.925Z,34.04
2022-08-05T16:38:03.147Z,33.55
2022-08-05T16:42:34.635Z,33.44
2022-08-05T16:47:48.424Z,33.30
2022-08-05T16:52:56.471Z,33.07
2022-08-05T16:58:01.276Z,32.88
2022-08-05T17:03:15.450Z,32.77
2022-08-05T17:08:36.252Z,32.61
2022-08-05T17:13:47.341Z,32.51
2022-08-05T17:18:49.886Z,32.42
2022-08-05T17:24:05.054Z,32.28
2022-08-05T17:29:10.400Z,32.25
2022-08-05T17:34:12.165Z,32.24
2022-08-05T17:39:23.873Z,32.18
2022-08-05T17:44:32.348Z,32.13
2022-08-05T17:49:59.739Z,32.06
2022-08-05T17:54:56.125Z,31.90
2022-08-05T18:00:03.717Z,31.48
2022-08-05T18:05:08.269Z,30.95
2022-08-05T18:10:20.278Z,30.37
2022-08-05T18:15:24.333Z,29.86
2022-08-05T18:20:29.663Z,29.79
2022-08-05T18:25:34.235Z,29.65
2022-08-05T18:30:38.901Z,29.32
2022-08-05T18:36:00.876Z,28.93
2022-08-05T18:41:53.691Z,28.66
2022-08-05T18:46:29.069Z,28.68
2022-08-05T18:52:05.767Z,28.71
2022-08-05T18:57:15.525Z,28.60
2022-08-05T19:02:28.299Z,28.57
2022-08-05T19:07:45.286Z,29.09
2022-08-05T19:12:48.679Z,29.29
2022-08-05T19:17:59.892Z,29.44
2022-08-05T19:23:22.601Z,29.44
2022-08-05T19:28:34.678Z,29.49
2022-08-05T19:33:38.073Z,29.47
2022-08-05T19:38:43.767Z,29.44
2022-08-05T19:44:06.792Z,29.42
2022-08-05T19:49:07.915Z,29.45
2022-08-05T19:54:21.837Z,29.51
2022-08-05T20:00:00.522Z,29.36
2022-08-05T20:04:55.383Z,29.23
2022-08-05T20:10:00.412Z,28.94
2022-08-05T20:15:02.169Z,28.70
2022-08-05T20:20:09.493Z,28.54
2022-08-05T20:25:12.927Z,28.45
2022-08-05T20:30:14.968Z,28.39
2022-08-05T20:35:20.197Z,28.30
2022-08-05T20:40:21.870Z,28.16
2022-08-05T20:45:23.957Z,27.65
2022-08-05T20:50:46.916Z,27.30
2022-08-05T20:55:56.593Z,26.41
2022-08-05T21:01:10.626Z,25.50
2022-08-05T21:06:28.434Z,24.97
2022-08-05T21:12:08.990Z,24.51
2022-08-05T21:16:53.430Z,24.36
2022-08-05T21:21:55.250Z,24.46
2022-08-05T21:26:58.687Z,24.52
2022-08-05T21:32:04.427Z,24.47
2022-08-05T21:37:08.133Z,24.45
2022-08-05T21:42:19.770Z,24.37
2022-08-05T21:47:56.846Z,24.34
2022-08-05T21:52:58.576Z,24.29
2022-08-05T21:58:01.685Z,24.36
2022-08-05T22:03:05.289Z,24.41
2022-08-05T22:08:07.151Z,24.39
2022-08-05T22:14:32.384Z,24.21
2022-08-05T22:18:49.113Z,24.32
2022-08-05T22:24:39.421Z,24.31
2022-08-05T22:29:32.933Z,24.02
2022-08-05T22:34:34.951Z,23.70
2022-08-05T22:39:38.135Z,23.45
2022-08-05T22:44:47.050Z,23.29
2022-08-05T22:50:19.230Z,23.34
2022-08-05T22:55:18.598Z,23.59
2022-08-05T23:00:23.599Z,23.67
2022-08-05T23:05:25.354Z,23.55
2022-08-05T23:10:27.038Z,23.59
2022-08-05T23:15:35.232Z,23.69
2022-08-05T23:20:38.029Z,23.78
2022-08-05T23:25:54.661Z,23.81
2022-08-05T23:31:16.297Z,23.75
2022-08-05T23:36:19.499Z,23.82
2022-08-05T23:41:21.262Z,23.78
2022-08-05T23:46:23.685Z,23.68
2022-08-05T23:51:25.407Z,23.49
2022-08-05T23:56:27.778Z,23.22
